Terminal Aerodrome Forecast
Issued by NWS

Home | Current Version | Previous Version | Text Only | Print | Product List | Glossary On
Versions: 1 2 3 4 5 6 7 8 9 10 11 12 13 14 15 16 17
000
FTAK31 PAJN 062300
TAFAJN
TAF
PAJN 062322Z 0700/0724 24010KT P6SM FEW035 SCT200
     FM070300 09005KT P6SM SCT150
     FM071400 12008KT P6SM BKN100
     FM072000 14012KT P6SM SCT060 OVC100=

USA.gov is the U.S. government's official web portal to all federal, state and local government web resources and services.